sensor_id;sensor_type;location;lat;lon;timestamp;pressure;altitude;pressure_sealevel;temperature;humidity
75298;BME280;63896;45.990;18.688;2023-10-08T00:00:25;101010.66;;;17.02;76.07
75298;BME280;63896;45.990;18.688;2023-10-08T00:03:48;101012.56;;;16.90;76.79
75298;BME280;63896;45.990;18.688;2023-10-08T00:06:52;101001.41;;;16.81;77.34
75298;BME280;63896;45.990;18.688;2023-10-08T00:09:55;100996.31;;;16.80;77.70
75298;BME280;63896;45.990;18.688;2023-10-08T00:12:58;100995.78;;;16.66;78.29
75298;BME280;63896;45.990;18.688;2023-10-08T00:16:01;100997.97;;;16.69;78.67
75298;BME280;63896;45.990;18.688;2023-10-08T00:19:03;100995.06;;;16.71;78.22
75298;BME280;63896;45.990;18.688;2023-10-08T00:22:11;100986.72;;;16.84;77.83
75298;BME280;63896;45.990;18.688;2023-10-08T00:25:15;100985.44;;;16.86;77.96
75298;BME280;63896;45.990;18.688;2023-10-08T00:28:18;100980.41;;;16.90;77.67
75298;BME280;63896;45.990;18.688;2023-10-08T00:31:23;100991.34;;;16.88;77.49
75298;BME280;63896;45.990;18.688;2023-10-08T00:34:44;100994.13;;;16.93;77.55
75298;BME280;63896;45.990;18.688;2023-10-08T00:37:47;100994.88;;;17.05;77.51
75298;BME280;63896;45.990;18.688;2023-10-08T00:40:51;100985.53;;;17.08;77.29
75298;BME280;63896;45.990;18.688;2023-10-08T00:43:58;100993.34;;;17.09;77.30
75298;BME280;63896;45.990;18.688;2023-10-08T00:47:04;100995.13;;;17.04;77.68
75298;BME280;63896;45.990;18.688;2023-10-08T00:50:12;100980.19;;;17.08;77.94
75298;BME280;63896;45.990;18.688;2023-10-08T00:53:23;100978.63;;;17.12;78.18
75298;BME280;63896;45.990;18.688;2023-10-08T00:56:28;100974.84;;;17.25;77.50
75298;BME280;63896;45.990;18.688;2023-10-08T00:59:49;100966.94;;;17.51;75.74
75298;BME280;63896;45.990;18.688;2023-10-08T01:02:58;100965.00;;;17.64;75.09
75298;BME280;63896;45.990;18.688;2023-10-08T01:06:05;100961.09;;;17.71;74.74
75298;BME280;63896;45.990;18.688;2023-10-08T01:09:12;100961.72;;;17.78;74.45
75298;BME280;63896;45.990;18.688;2023-10-08T01:12:22;100960.66;;;17.79;73.69
75298;BME280;63896;45.990;18.688;2023-10-08T01:15:29;100954.47;;;17.79;73.95
75298;BME280;63896;45.990;18.688;2023-10-08T01:18:33;100940.47;;;17.77;74.11
75298;BME280;63896;45.990;18.688;2023-10-08T01:21:38;100947.47;;;17.78;74.04
75298;BME280;63896;45.990;18.688;2023-10-08T01:24:42;100943.59;;;17.69;74.66
75298;BME280;63896;45.990;18.688;2023-10-08T01:27:46;100946.28;;;17.69;74.88
75298;BME280;63896;45.990;18.688;2023-10-08T01:30:49;100947.91;;;17.70;74.76
75298;BME280;63896;45.990;18.688;2023-10-08T01:33:56;100948.31;;;17.61;75.44
75298;BME280;63896;45.990;18.688;2023-10-08T01:36:59;100944.34;;;17.64;75.54
75298;BME280;63896;45.990;18.688;2023-10-08T01:40:11;100945.16;;;17.65;75.53
75298;BME280;63896;45.990;18.688;2023-10-08T01:43:13;100944.75;;;17.56;75.78
75298;BME280;63896;45.990;18.688;2023-10-08T01:46:16;100951.28;;;17.60;75.73
75298;BME280;63896;45.990;18.688;2023-10-08T01:49:19;100943.28;;;17.48;76.39
75298;BME280;63896;45.990;18.688;2023-10-08T01:52:24;100945.16;;;17.48;76.46
75298;BME280;63896;45.990;18.688;2023-10-08T01:55:27;100931.47;;;17.49;76.89
75298;BME280;63896;45.990;18.688;2023-10-08T01:58:32;100936.53;;;17.46;76.98
75298;BME280;63896;45.990;18.688;2023-10-08T02:01:38;100934.91;;;17.45;77.35
75298;BME280;63896;45.990;18.688;2023-10-08T02:04:41;100926.56;;;17.41;77.37
75298;BME280;63896;45.990;18.688;2023-10-08T02:07:47;100933.53;;;17.42;77.21
75298;BME280;63896;45.990;18.688;2023-10-08T02:10:50;100926.28;;;17.43;77.52
75298;BME280;63896;45.990;18.688;2023-10-08T02:13:53;100932.38;;;17.38;78.16
75298;BME280;63896;45.990;18.688;2023-10-08T02:16:56;100921.34;;;17.35;78.55
75298;BME280;63896;45.990;18.688;2023-10-08T02:19:59;100921.84;;;17.32;79.17
75298;BME280;63896;45.990;18.688;2023-10-08T02:23:02;100911.09;;;17.32;79.34
75298;BME280;63896;45.990;18.688;2023-10-08T02:26:07;100905.19;;;17.30;79.74
75298;BME280;63896;45.990;18.688;2023-10-08T02:29:10;100914.09;;;17.35;79.74
75298;BME280;63896;45.990;18.688;2023-10-08T02:32:13;100917.59;;;17.36;80.31
75298;BME280;63896;45.990;18.688;2023-10-08T02:35:16;100923.38;;;17.44;79.67
75298;BME280;63896;45.990;18.688;2023-10-08T02:38:19;100921.50;;;17.45;79.97
75298;BME280;63896;45.990;18.688;2023-10-08T02:41:24;100909.47;;;17.47;79.92
75298;BME280;63896;45.990;18.688;2023-10-08T02:44:27;100909.38;;;17.42;80.12
75298;BME280;63896;45.990;18.688;2023-10-08T02:47:30;100905.41;;;17.45;80.43
75298;BME280;63896;45.990;18.688;2023-10-08T02:50:34;100907.91;;;17.51;80.35
75298;BME280;63896;45.990;18.688;2023-10-08T02:53:37;100912.22;;;17.52;80.19
75298;BME280;63896;45.990;18.688;2023-10-08T02:56:48;100903.03;;;17.48;80.19
75298;BME280;63896;45.990;18.688;2023-10-08T02:59:54;100902.22;;;17.48;80.83
75298;BME280;63896;45.990;18.688;2023-10-08T03:02:58;100907.59;;;17.48;80.98
75298;BME280;63896;45.990;18.688;2023-10-08T03:06:04;100903.34;;;17.52;80.82
75298;BME280;63896;45.990;18.688;2023-10-08T03:09:07;100904.59;;;17.44;81.49
75298;BME280;63896;45.990;18.688;2023-10-08T03:12:13;100892.03;;;17.50;81.15
75298;BME280;63896;45.990;18.688;2023-10-08T03:15:15;100901.22;;;17.54;80.76
75298;BME280;63896;45.990;18.688;2023-10-08T03:18:32;100903.47;;;17.57;81.12
75298;BME280;63896;45.990;18.688;2023-10-08T03:21:46;100889.34;;;17.67;81.23
75298;BME280;63896;45.990;18.688;2023-10-08T03:24:59;100884.25;;;17.87;80.02
75298;BME280;63896;45.990;18.688;2023-10-08T03:28:16;100882.31;;;17.82;80.48
75298;BME280;63896;45.990;18.688;2023-10-08T03:31:20;100878.81;;;17.82;80.02
75298;BME280;63896;45.990;18.688;2023-10-08T03:34:34;100885.56;;;17.84;79.68
75298;BME280;63896;45.990;18.688;2023-10-08T03:37:37;100882.88;;;17.84;79.86
75298;BME280;63896;45.990;18.688;2023-10-08T03:40:48;100880.31;;;17.73;79.87
75298;BME280;63896;45.990;18.688;2023-10-08T03:43:53;100889.88;;;17.64;80.35
75298;BME280;63896;45.990;18.688;2023-10-08T03:46:58;100892.22;;;17.60;80.80
75298;BME280;63896;45.990;18.688;2023-10-08T03:50:01;100899.19;;;17.61;80.33
75298;BME280;63896;45.990;18.688;2023-10-08T03:53:08;100893.53;;;17.57;80.35
75298;BME280;63896;45.990;18.688;2023-10-08T03:56:14;100889.44;;;17.55;80.94
75298;BME280;63896;45.990;18.688;2023-10-08T03:59:20;100899.28;;;17.49;80.94
75298;BME280;63896;45.990;18.688;2023-10-08T04:02:32;100900.66;;;17.52;80.64
75298;BME280;63896;45.990;18.688;2023-10-08T04:05:42;100884.25;;;17.48;80.84
75298;BME280;63896;45.990;18.688;2023-10-08T04:09:18;100900.34;;;17.48;80.86
75298;BME280;63896;45.990;18.688;2023-10-08T04:12:23;100911.13;;;17.53;80.72
75298;BME280;63896;45.990;18.688;2023-10-08T04:15:29;100912.13;;;17.47;81.48
75298;BME280;63896;45.990;18.688;2023-10-08T04:18:32;100907.28;;;17.44;81.69
75298;BME280;63896;45.990;18.688;2023-10-08T04:21:42;100903.19;;;17.42;81.86
75298;BME280;63896;45.990;18.688;2023-10-08T04:24:45;100902.97;;;17.43;81.84
75298;BME280;63896;45.990;18.688;2023-10-08T04:27:48;100902.63;;;17.40;82.35
75298;BME280;63896;45.990;18.688;2023-10-08T04:30:52;100896.13;;;17.36;82.68
75298;BME280;63896;45.990;18.688;2023-10-08T04:33:55;100894.47;;;17.30;83.29
75298;BME280;63896;45.990;18.688;2023-10-08T04:37:03;100876.16;;;17.27;83.64
75298;BME280;63896;45.990;18.688;2023-10-08T04:40:14;100875.00;;;17.23;84.00
75298;BME280;63896;45.990;18.688;2023-10-08T04:43:22;100876.66;;;17.24;84.04
75298;BME280;63896;45.990;18.688;2023-10-08T04:46:30;100867.56;;;17.25;84.05
75298;BME280;63896;45.990;18.688;2023-10-08T04:49:50;100856.00;;;17.24;84.34
75298;BME280;63896;45.990;18.688;2023-10-08T04:52:55;100855.09;;;17.19;84.83
75298;BME280;63896;45.990;18.688;2023-10-08T04:56:02;100847.88;;;17.19;85.06
75298;BME280;63896;45.990;18.688;2023-10-08T04:59:08;100844.06;;;17.15;85.54
75298;BME280;63896;45.990;18.688;2023-10-08T05:02:14;100845.16;;;17.14;85.76
75298;BME280;63896;45.990;18.688;2023-10-08T05:05:43;100856.59;;;17.09;86.21
75298;BME280;63896;45.990;18.688;2023-10-08T05:09:11;100859.03;;;17.11;86.26
75298;BME280;63896;45.990;18.688;2023-10-08T05:12:15;100857.84;;;17.02;87.23
75298;BME280;63896;45.990;18.688;2023-10-08T05:15:36;100864.00;;;17.02;87.17
75298;BME280;63896;45.990;18.688;2023-10-08T05:18:44;100867.31;;;17.09;86.77
75298;BME280;63896;45.990;18.688;2023-10-08T05:22:05;100862.28;;;17.13;86.45
75298;BME280;63896;45.990;18.688;2023-10-08T05:25:21;100863.66;;;17.15;86.25
75298;BME280;63896;45.990;18.688;2023-10-08T05:28:24;100864.56;;;17.21;86.43
75298;BME280;63896;45.990;18.688;2023-10-08T05:31:28;100862.28;;;17.30;85.75
75298;BME280;63896;45.990;18.688;2023-10-08T05:34:55;100862.63;;;17.38;85.48
75298;BME280;63896;45.990;18.688;2023-10-08T05:38:22;100869.44;;;17.46;85.15
75298;BME280;63896;45.990;18.688;2023-10-08T05:41:29;100873.03;;;17.51;84.84
75298;BME280;63896;45.990;18.688;2023-10-08T05:44:43;100865.44;;;17.65;84.12
75298;BME280;63896;45.990;18.688;2023-10-08T05:48:09;100865.53;;;17.70;83.81
75298;BME280;63896;45.990;18.688;2023-10-08T05:51:30;100868.81;;;17.77;83.76
75298;BME280;63896;45.990;18.688;2023-10-08T05:54:52;100860.59;;;17.84;82.87
75298;BME280;63896;45.990;18.688;2023-10-08T05:58:18;100865.56;;;17.97;82.22
75298;BME280;63896;45.990;18.688;2023-10-08T06:01:20;100869.69;;;18.04;82.06
75298;BME280;63896;45.990;18.688;2023-10-08T06:04:42;100859.16;;;18.25;80.25
75298;BME280;63896;45.990;18.688;2023-10-08T06:07:56;100858.44;;;18.56;78.24
75298;BME280;63896;45.990;18.688;2023-10-08T06:11:13;100853.44;;;18.70;76.83
75298;BME280;63896;45.990;18.688;2023-10-08T06:14:30;100850.56;;;18.76;75.75
75298;BME280;63896;45.990;18.688;2023-10-08T06:17:51;100862.06;;;19.03;74.30
75298;BME280;63896;45.990;18.688;2023-10-08T06:21:07;100855.19;;;19.23;72.41
75298;BME280;63896;45.990;18.688;2023-10-08T06:24:14;100850.31;;;19.62;71.50
75298;BME280;63896;45.990;18.688;2023-10-08T06:27:19;100870.94;;;20.08;68.61
75298;BME280;63896;45.990;18.688;2023-10-08T06:30:23;100858.41;;;20.49;65.70
75298;BME280;63896;45.990;18.688;2023-10-08T06:33:27;100861.13;;;20.95;64.01
75298;BME280;63896;45.990;18.688;2023-10-08T06:36:36;100865.19;;;21.12;61.83
75298;BME280;63896;45.990;18.688;2023-10-08T06:39:39;100853.00;;;21.35;60.69
75298;BME280;63896;45.990;18.688;2023-10-08T06:42:51;100859.22;;;21.30;60.57
75298;BME280;63896;45.990;18.688;2023-10-08T06:45:54;100846.56;;;20.80;61.94
75298;BME280;63896;45.990;18.688;2023-10-08T06:49:03;100840.09;;;20.71;62.26
75298;BME280;63896;45.990;18.688;2023-10-08T06:52:12;100852.47;;;20.62;62.32
75298;BME280;63896;45.990;18.688;2023-10-08T06:55:16;100856.78;;;20.63;62.74
75298;BME280;63896;45.990;18.688;2023-10-08T06:58:20;100856.28;;;20.61;62.72
75298;BME280;63896;45.990;18.688;2023-10-08T07:01:23;100857.31;;;20.55;62.96
75298;BME280;63896;45.990;18.688;2023-10-08T07:04:41;100850.59;;;20.53;62.69
75298;BME280;63896;45.990;18.688;2023-10-08T07:07:46;100854.34;;;20.41;62.88
75298;BME280;63896;45.990;18.688;2023-10-08T07:10:50;100858.91;;;20.36;63.60
75298;BME280;63896;45.990;18.688;2023-10-08T07:13:53;100859.41;;;20.28;63.91
75298;BME280;63896;45.990;18.688;2023-10-08T07:16:59;100859.41;;;20.28;63.94
75298;BME280;63896;45.990;18.688;2023-10-08T07:20:04;100865.41;;;20.40;63.00
75298;BME280;63896;45.990;18.688;2023-10-08T07:23:12;100868.38;;;20.38;63.37
75298;BME280;63896;45.990;18.688;2023-10-08T07:26:23;100861.91;;;20.75;62.00
75298;BME280;63896;45.990;18.688;2023-10-08T07:29:28;100881.09;;;20.88;61.49
75298;BME280;63896;45.990;18.688;2023-10-08T07:32:31;100886.72;;;20.82;61.86
75298;BME280;63896;45.990;18.688;2023-10-08T07:35:37;100885.66;;;20.98;61.50
75298;BME280;63896;45.990;18.688;2023-10-08T07:38:41;100887.56;;;21.08;60.75
75298;BME280;63896;45.990;18.688;2023-10-08T07:41:47;100893.25;;;21.11;60.33
75298;BME280;63896;45.990;18.688;2023-10-08T07:44:50;100892.84;;;21.63;59.25
75298;BME280;63896;45.990;18.688;2023-10-08T07:47:57;100891.56;;;22.64;55.64
75298;BME280;63896;45.990;18.688;2023-10-08T07:51:00;100890.84;;;22.92;54.41
75298;BME280;63896;45.990;18.688;2023-10-08T07:54:04;100887.84;;;22.55;54.84
75298;BME280;63896;45.990;18.688;2023-10-08T07:57:13;100878.81;;;23.03;53.53
75298;BME280;63896;45.990;18.688;2023-10-08T08:00:19;100886.97;;;24.97;48.53
75298;BME280;63896;45.990;18.688;2023-10-08T08:03:28;100884.59;;;26.32;44.60
75298;BME280;63896;45.990;18.688;2023-10-08T08:06:30;100897.41;;;26.31;44.14
75298;BME280;63896;45.990;18.688;2023-10-08T08:09:36;100899.66;;;26.51;43.71
75298;BME280;63896;45.990;18.688;2023-10-08T08:12:40;100902.91;;;26.98;42.11
75298;BME280;63896;45.990;18.688;2023-10-08T08:15:43;100901.19;;;27.33;42.25
75298;BME280;63896;45.990;18.688;2023-10-08T08:18:54;100898.53;;;27.89;40.35
75298;BME280;63896;45.990;18.688;2023-10-08T08:22:01;100911.78;;;28.39;40.00
75298;BME280;63896;45.990;18.688;2023-10-08T08:25:05;100905.63;;;28.08;38.79
75298;BME280;63896;45.990;18.688;2023-10-08T08:28:18;100897.34;;;28.30;38.40
75298;BME280;63896;45.990;18.688;2023-10-08T08:31:28;100895.56;;;28.85;37.95
75298;BME280;63896;45.990;18.688;2023-10-08T08:34:34;100887.50;;;29.06;36.40
75298;BME280;63896;45.990;18.688;2023-10-08T08:37:38;100878.75;;;30.26;34.36
75298;BME280;63896;45.990;18.688;2023-10-08T08:40:42;100869.19;;;30.33;33.76
75298;BME280;63896;45.990;18.688;2023-10-08T08:43:49;100879.34;;;30.86;33.33
75298;BME280;63896;45.990;18.688;2023-10-08T08:47:00;100861.09;;;31.83;31.67
75298;BME280;63896;45.990;18.688;2023-10-08T08:50:08;100869.44;;;31.87;31.20
75298;BME280;63896;45.990;18.688;2023-10-08T08:53:13;100863.94;;;31.50;31.34
75298;BME280;63896;45.990;18.688;2023-10-08T08:56:15;100870.56;;;32.10;30.54
75298;BME280;63896;45.990;18.688;2023-10-08T08:59:18;100875.00;;;32.54;29.59
75298;BME280;63896;45.990;18.688;2023-10-08T09:02:22;100879.97;;;31.97;30.15
75298;BME280;63896;45.990;18.688;2023-10-08T09:05:25;100887.38;;;31.96;29.87
75298;BME280;63896;45.990;18.688;2023-10-08T09:08:36;100887.06;;;31.74;30.37
75298;BME280;63896;45.990;18.688;2023-10-08T09:11:42;100889.34;;;31.59;29.28
75298;BME280;63896;45.990;18.688;2023-10-08T09:14:46;100881.97;;;31.15;29.63
75298;BME280;63896;45.990;18.688;2023-10-08T09:17:48;100876.06;;;31.37;29.49
75298;BME280;63896;45.990;18.688;2023-10-08T09:20:51;100885.66;;;31.31;30.12
75298;BME280;63896;45.990;18.688;2023-10-08T09:23:54;100891.06;;;31.88;29.09
75298;BME280;63896;45.990;18.688;2023-10-08T09:26:57;100884.16;;;32.06;28.96
75298;BME280;63896;45.990;18.688;2023-10-08T09:30:04;100885.00;;;32.47;28.50
75298;BME280;63896;45.990;18.688;2023-10-08T09:33:12;100886.22;;;32.62;28.05
75298;BME280;63896;45.990;18.688;2023-10-08T09:36:15;100883.66;;;32.29;28.91
75298;BME280;63896;45.990;18.688;2023-10-08T09:39:21;100882.63;;;32.33;28.36
75298;BME280;63896;45.990;18.688;2023-10-08T09:42:28;100870.25;;;32.67;28.04
75298;BME280;63896;45.990;18.688;2023-10-08T09:45:33;100882.34;;;33.53;26.65
75298;BME280;63896;45.990;18.688;2023-10-08T09:48:38;100876.59;;;33.42;26.97
75298;BME280;63896;45.990;18.688;2023-10-08T09:51:43;100871.75;;;32.92;27.62
75298;BME280;63896;45.990;18.688;2023-10-08T09:55:00;100872.34;;;32.30;28.08
75298;BME280;63896;45.990;18.688;2023-10-08T09:58:06;100870.50;;;31.70;29.10
75298;BME280;63896;45.990;18.688;2023-10-08T10:01:10;100883.72;;;32.17;28.45
75298;BME280;63896;45.990;18.688;2023-10-08T10:04:22;100884.03;;;32.27;28.25
75298;BME280;63896;45.990;18.688;2023-10-08T10:07:27;100891.75;;;31.97;28.73
75298;BME280;63896;45.990;18.688;2023-10-08T10:10:32;100899.03;;;31.45;29.78
75298;BME280;63896;45.990;18.688;2023-10-08T10:13:50;100908.69;;;31.06;30.29
75298;BME280;63896;45.990;18.688;2023-10-08T10:17:13;100915.59;;;31.24;29.78
75298;BME280;63896;45.990;18.688;2023-10-08T10:20:53;100914.97;;;32.52;28.16
75298;BME280;63896;45.990;18.688;2023-10-08T10:24:03;100914.34;;;32.31;27.51
75298;BME280;63896;45.990;18.688;2023-10-08T10:27:15;100922.44;;;31.30;28.43
75298;BME280;63896;45.990;18.688;2023-10-08T10:30:18;100923.88;;;30.83;28.79
75298;BME280;63896;45.990;18.688;2023-10-08T10:33:31;100921.16;;;31.15;28.68
75298;BME280;63896;45.990;18.688;2023-10-08T10:36:37;100923.59;;;31.29;28.48
75298;BME280;63896;45.990;18.688;2023-10-08T10:39:41;100915.97;;;31.02;28.52
75298;BME280;63896;45.990;18.688;2023-10-08T10:42:47;100913.53;;;30.67;29.55
75298;BME280;63896;45.990;18.688;2023-10-08T10:45:55;100928.66;;;30.73;29.70
75298;BME280;63896;45.990;18.688;2023-10-08T10:48:59;100929.41;;;31.15;29.30
75298;BME280;63896;45.990;18.688;2023-10-08T10:52:27;100937.97;;;31.26;29.15
75298;BME280;63896;45.990;18.688;2023-10-08T10:55:55;100921.56;;;30.31;30.49
75298;BME280;63896;45.990;18.688;2023-10-08T10:59:12;100931.69;;;32.59;27.92
75298;BME280;63896;45.990;18.688;2023-10-08T11:02:21;100939.81;;;33.11;26.79
75298;BME280;63896;45.990;18.688;2023-10-08T11:05:33;100928.53;;;33.00;27.35
75298;BME280;63896;45.990;18.688;2023-10-08T11:08:40;100936.34;;;32.71;27.58
75298;BME280;63896;45.990;18.688;2023-10-08T11:11:49;100927.00;;;33.31;26.72
75298;BME280;63896;45.990;18.688;2023-10-08T11:14:57;100925.88;;;33.63;26.14
75298;BME280;63896;45.990;18.688;2023-10-08T11:18:00;100926.59;;;34.45;25.12
75298;BME280;63896;45.990;18.688;2023-10-08T11:21:09;100929.03;;;33.49;25.30
75298;BME280;63896;45.990;18.688;2023-10-08T11:24:32;100922.75;;;33.33;25.92
75298;BME280;63896;45.990;18.688;2023-10-08T11:27:36;100922.38;;;33.19;26.23
75298;BME280;63896;45.990;18.688;2023-10-08T11:30:41;100905.94;;;34.74;24.33
75298;BME280;63896;45.990;18.688;2023-10-08T11:33:45;100904.69;;;34.33;24.90
75298;BME280;63896;45.990;18.688;2023-10-08T11:36:57;100901.44;;;34.85;24.39
75298;BME280;63896;45.990;18.688;2023-10-08T11:40:01;100914.69;;;32.97;25.85
75298;BME280;63896;45.990;18.688;2023-10-08T11:43:19;100899.28;;;32.13;27.30
75298;BME280;63896;45.990;18.688;2023-10-08T11:46:27;100908.53;;;32.60;27.09
75298;BME280;63896;45.990;18.688;2023-10-08T11:49:31;100917.09;;;34.08;25.48
75298;BME280;63896;45.990;18.688;2023-10-08T11:52:38;100906.06;;;34.24;24.79
75298;BME280;63896;45.990;18.688;2023-10-08T11:55:44;100905.97;;;33.85;24.71
75298;BME280;63896;45.990;18.688;2023-10-08T11:58:50;100920.69;;;33.93;24.98
75298;BME280;63896;45.990;18.688;2023-10-08T12:01:54;100904.13;;;34.43;24.62
75298;BME280;63896;45.990;18.688;2023-10-08T12:04:58;100899.09;;;34.87;24.59
75298;BME280;63896;45.990;18.688;2023-10-08T12:08:02;100909.91;;;34.58;25.02
75298;BME280;63896;45.990;18.688;2023-10-08T12:11:05;100916.13;;;34.16;25.56
75298;BME280;63896;45.990;18.688;2023-10-08T12:14:14;100914.88;;;34.14;25.25
75298;BME280;63896;45.990;18.688;2023-10-08T12:17:17;100909.97;;;33.72;26.27
75298;BME280;63896;45.990;18.688;2023-10-08T12:20:20;100901.00;;;33.60;26.55
75298;BME280;63896;45.990;18.688;2023-10-08T12:23:26;100908.34;;;31.89;28.27
75298;BME280;63896;45.990;18.688;2023-10-08T12:26:28;100914.84;;;31.96;28.70
75298;BME280;63896;45.990;18.688;2023-10-08T12:29:33;100916.06;;;30.93;30.08
75298;BME280;63896;45.990;18.688;2023-10-08T12:32:37;100914.78;;;30.91;30.27
75298;BME280;63896;45.990;18.688;2023-10-08T12:35:46;100919.31;;;31.77;28.74
75298;BME280;63896;45.990;18.688;2023-10-08T12:38:50;100925.53;;;31.41;29.23
75298;BME280;63896;45.990;18.688;2023-10-08T12:42:00;100941.44;;;29.81;31.14
75298;BME280;63896;45.990;18.688;2023-10-08T12:45:08;100939.13;;;29.08;32.30
75298;BME280;63896;45.990;18.688;2023-10-08T12:48:15;100935.91;;;28.37;33.99
75298;BME280;63896;45.990;18.688;2023-10-08T12:51:18;100928.59;;;28.07;34.75
75298;BME280;63896;45.990;18.688;2023-10-08T12:54:26;100931.31;;;28.07;34.97
75298;BME280;63896;45.990;18.688;2023-10-08T12:57:35;100929.13;;;27.78;35.75
75298;BME280;63896;45.990;18.688;2023-10-08T13:00:40;100924.63;;;27.42;36.26
75298;BME280;63896;45.990;18.688;2023-10-08T13:03:46;100929.88;;;27.08;36.87
75298;BME280;63896;45.990;18.688;2023-10-08T13:06:54;100932.97;;;26.71;37.03
75298;BME280;63896;45.990;18.688;2023-10-08T13:10:00;100937.50;;;26.12;38.00
75298;BME280;63896;45.990;18.688;2023-10-08T13:13:02;100932.69;;;26.09;38.41
75298;BME280;63896;45.990;18.688;2023-10-08T13:16:05;100948.91;;;25.87;39.02
75298;BME280;63896;45.990;18.688;2023-10-08T13:19:10;100946.69;;;25.89;39.90
75298;BME280;63896;45.990;18.688;2023-10-08T13:22:13;100959.56;;;25.70;41.14
75298;BME280;63896;45.990;18.688;2023-10-08T13:25:22;100956.97;;;25.46;42.01
75298;BME280;63896;45.990;18.688;2023-10-08T13:28:25;100967.38;;;25.44;41.56
75298;BME280;63896;45.990;18.688;2023-10-08T13:31:31;100970.56;;;25.32;42.36
75298;BME280;63896;45.990;18.688;2023-10-08T13:34:39;100980.75;;;24.89;43.79
75298;BME280;63896;45.990;18.688;2023-10-08T13:37:42;100973.09;;;24.54;45.88
75298;BME280;63896;45.990;18.688;2023-10-08T13:40:51;100985.31;;;23.85;47.89
75298;BME280;63896;45.990;18.688;2023-10-08T13:44:06;101005.25;;;23.37;49.25
75298;BME280;63896;45.990;18.688;2023-10-08T13:47:08;101001.00;;;23.25;50.10
75298;BME280;63896;45.990;18.688;2023-10-08T13:50:17;101014.91;;;23.14;50.66
75298;BME280;63896;45.990;18.688;2023-10-08T13:53:21;101025.28;;;23.02;51.26
75298;BME280;63896;45.990;18.688;2023-10-08T13:56:27;101032.19;;;22.79;51.39
75298;BME280;63896;45.990;18.688;2023-10-08T13:59:34;101021.94;;;22.76;51.67
75298;BME280;63896;45.990;18.688;2023-10-08T14:02:37;101035.81;;;22.54;52.13
75298;BME280;63896;45.990;18.688;2023-10-08T14:05:41;101037.47;;;22.45;52.75
75298;BME280;63896;45.990;18.688;2023-10-08T14:08:44;101045.00;;;22.53;52.94
75298;BME280;63896;45.990;18.688;2023-10-08T14:11:54;101056.13;;;22.42;52.74
75298;BME280;63896;45.990;18.688;2023-10-08T14:14:58;101063.25;;;22.17;53.33
75298;BME280;63896;45.990;18.688;2023-10-08T14:18:01;101064.91;;;22.03;53.07
75298;BME280;63896;45.990;18.688;2023-10-08T14:21:08;101062.19;;;21.98;53.23
75298;BME280;63896;45.990;18.688;2023-10-08T14:24:12;101071.59;;;22.31;52.83
75298;BME280;63896;45.990;18.688;2023-10-08T14:27:18;101080.03;;;21.84;52.05
75298;BME280;63896;45.990;18.688;2023-10-08T14:30:28;101080.59;;;21.81;52.04
75298;BME280;63896;45.990;18.688;2023-10-08T14:33:32;101086.50;;;21.78;52.03
75298;BME280;63896;45.990;18.688;2023-10-08T14:36:45;101101.09;;;21.36;51.99
75298;BME280;63896;45.990;18.688;2023-10-08T14:40:07;101111.06;;;21.31;50.95
75298;BME280;63896;45.990;18.688;2023-10-08T14:43:29;101106.13;;;21.08;51.07
75298;BME280;63896;45.990;18.688;2023-10-08T14:46:41;101113.59;;;20.85;50.40
75298;BME280;63896;45.990;18.688;2023-10-08T14:49:43;101115.41;;;20.65;49.91
75298;BME280;63896;45.990;18.688;2023-10-08T14:52:48;101122.13;;;20.62;49.75
75298;BME280;63896;45.990;18.688;2023-10-08T14:55:51;101118.13;;;20.23;50.74
75298;BME280;63896;45.990;18.688;2023-10-08T14:58:54;101131.50;;;20.13;50.88
75298;BME280;63896;45.990;18.688;2023-10-08T15:01:57;101142.09;;;20.19;50.69
75298;BME280;63896;45.990;18.688;2023-10-08T15:05:00;101155.06;;;19.90;50.93
75298;BME280;63896;45.990;18.688;2023-10-08T15:08:03;101157.22;;;19.88;51.24
75298;BME280;63896;45.990;18.688;2023-10-08T15:11:13;101164.41;;;19.83;51.30
75298;BME280;63896;45.990;18.688;2023-10-08T15:14:15;101172.16;;;19.74;51.33
75298;BME280;63896;45.990;18.688;2023-10-08T15:17:18;101171.19;;;19.59;52.06
75298;BME280;63896;45.990;18.688;2023-10-08T15:20:21;101167.91;;;19.52;52.05
75298;BME280;63896;45.990;18.688;2023-10-08T15:23:26;101170.16;;;19.38;51.74
75298;BME280;63896;45.990;18.688;2023-10-08T15:26:29;101160.09;;;19.28;52.16
75298;BME280;63896;45.990;18.688;2023-10-08T15:29:32;101171.72;;;19.34;51.49
75298;BME280;63896;45.990;18.688;2023-10-08T15:32:36;101182.97;;;19.31;51.53
75298;BME280;63896;45.990;18.688;2023-10-08T15:35:39;101184.88;;;19.30;51.21
75298;BME280;63896;45.990;18.688;2023-10-08T15:38:43;101191.69;;;19.16;51.84
75298;BME280;63896;45.990;18.688;2023-10-08T15:41:46;101188.00;;;19.00;51.50
75298;BME280;63896;45.990;18.688;2023-10-08T15:44:49;101187.38;;;18.93;52.03
75298;BME280;63896;45.990;18.688;2023-10-08T15:47:52;101198.75;;;18.79;51.99
75298;BME280;63896;45.990;18.688;2023-10-08T15:50:56;101206.91;;;18.67;52.07
75298;BME280;63896;45.990;18.688;2023-10-08T15:53:59;101194.09;;;18.52;52.25
75298;BME280;63896;45.990;18.688;2023-10-08T15:57:04;101195.34;;;18.50;52.19
75298;BME280;63896;45.990;18.688;2023-10-08T16:00:07;101196.88;;;18.46;51.89
75298;BME280;63896;45.990;18.688;2023-10-08T16:03:10;101192.59;;;18.45;51.67
75298;BME280;63896;45.990;18.688;2023-10-08T16:06:14;101189.19;;;18.33;52.15